Maxton, MI

4:18 AM EST on January 21, 2017 (GMT -0500)
Potagannissing Bay Front | | Change Station
Active Advisory: Dense Fog Advisory

Elev 587 ft 46.06 °N, 83.67 °W | Updated 2 seconds ago

Overcast
Overcast
32.9 °F
Feels Like 33 °F
N
0.0
Wind Variable Wind from ENE
Gusts 1.0 mph

Today
High -- | Low -- °F
--% Chance of Precip.
Yesterday
High -- | Low -- °F
Precip. -- in
Pressure 29.71 in
Visibility 2.0 miles
Clouds Overcast 700 ft
Windchill 33 °F
Dew Point 33 °F
Humidity 99%
Rainfall 0.00 in
Snow Depth Not available.
8:08 AM 5:24 PM
Last Quarter, 36% visible
METAR KDRM 210855Z AUTO 00000KT 2SM BR OVC007 01/01 A2971 RMK AO2 T00080008
Pressure 29.71 in
Visibility 2.0 miles
Clouds Overcast 700 ft
Windchill 33 °F
Dew Point 33 °F
Humidity 99%
Rainfall 0.00 in
Snow Depth Not available.
8:08 AM 5:24 PM
Last Quarter, 36% visible
METAR KDRM 210855Z AUTO 00000KT 2SM BR OVC007 01/01 A2971 RMK AO2 T00080008

Get Your Daily Forecast Email!

Thanks for signing up!

Be on the lookout for a verification email in your inbox.

You'll start receiving the daily forecast at 8 AM.

×

10-Day Weather Forecast

Almanac

Astronomy

Jan. 21, 2017 Rise Set
Actual Time
Civil Twilight
Nautical Twilight
Astronomical Twilight
Moon
Length of Visible Light
Length of Day
Tomorrow will be .
, % of the Moon is Illuminated

Today's Extremes

State Highs State Lows

Community

WunderPhotos

Upload Photos

1,962,540 photos uploaded!

WunderBlog® & News

Nearby

Air Quality

  Air Quality AQ Index Pollutant
Not available.

Snow Depth

Station Depth Elevation

Earthquake Activity

City Distance Mag. Time & Date
Minimum magnitude displayed is 2.5.

Coastal Water Temperatures

Place Temperature

Stations

Nearby Weather Stations

Station Location Temp. Windchill Dew Point Humidity Wind Precip. Elev Updated Type
                   

Watches & Warnings

Dense Fog Advisory
Issued: 3:52 AM EST Jan. 21, 2017 – National Weather Service

... Dense fog advisory remains in effect until noon EST today...

* visibility... fog has lifted to a degree early this morning.
However... additional dense fog with visibilities of one quarter
of a mile or less is expected to develop through morning.

* Impacts... low visibilities will lead to difficult driving
conditions. Also... temperatures around freezing into daybreak
may allow for light icing on untreated surfaces.

Precautionary/preparedness actions...

A dense fog advisory means visibilities will frequently be
reduced to less than one quarter mile. If driving... slow down...
use your headlights... and leave plenty of distance ahead of you.



Smd